Time;durP1;ratioP1;P1;durP2;ratioP2;P2;SDS_P1;SDS_P2;PMS_P1;PMS_P2;Temp;Humidity;BMP_temperature;BMP_pressure;BME280_temperature;BME280_humidity;BME280_pressure;Samples;Min_cycle;Max_cycle;Signal;HPM_P1;HPM_P2
2023/08/14 00:01:55;;;;;;;2.70;1.30;;;22.70;99.90;;;;;;4974968;28;20138;-87
2023/08/14 00:04:20;;;;;;;1.75;1.40;;;22.70;99.90;;;;;;4978159;28;20018;-86
2023/08/14 00:06:46;;;;;;;2.53;1.42;;;22.70;99.90;;;;;;4974773;28;20491;-86
2023/08/14 00:09:12;;;;;;;1.55;1.30;;;22.70;99.90;;;;;;4974792;28;20027;-82
2023/08/14 00:11:37;;;;;;;3.00;1.52;;;22.70;99.90;;;;;;4974702;28;20034;-86
2023/08/14 00:14:03;;;;;;;3.95;1.40;;;22.70;99.90;;;;;;4975266;28;20027;-86
2023/08/14 00:16:29;;;;;;;2.15;1.33;;;22.70;99.90;;;;;;4974287;28;20571;-85
2023/08/14 00:18:54;;;;;;;3.65;1.42;;;22.70;99.90;;;;;;4973890;28;20046;-85
2023/08/14 00:21:20;;;;;;;2.00;1.52;;;22.70;99.90;;;;;;4977839;28;20027;-85
2023/08/14 00:23:45;;;;;;;2.65;1.50;;;22.70;99.90;;;;;;4978610;28;20110;-85
2023/08/14 00:26:14;;;;;;;3.28;1.90;;;22.70;99.90;;;;;;4977765;28;20131;-84
2023/08/14 00:28:40;;;;;;;2.67;1.40;;;22.70;99.90;;;;;;4978778;28;20114;-86
2023/08/14 00:31:05;;;;;;;2.00;1.42;;;22.70;99.90;;;;;;4979024;28;20058;-86
2023/08/14 00:33:31;;;;;;;1.85;1.48;;;22.70;99.90;;;;;;4978676;28;20023;-86
2023/08/14 00:35:57;;;;;;;2.88;1.40;;;22.70;99.90;;;;;;4978274;28;20030;-86
2023/08/14 00:38:22;;;;;;;2.20;1.50;;;22.70;99.90;;;;;;4978210;28;20034;-86
2023/08/14 00:40:48;;;;;;;2.17;1.25;;;22.60;99.90;;;;;;4978103;28;20117;-86
2023/08/14 00:43:14;;;;;;;4.22;1.50;;;22.70;99.90;;;;;;4978865;28;20030;-82
2023/08/14 00:45:40;;;;;;;5.38;2.10;;;22.70;99.90;;;;;;4977729;28;20051;-87
2023/08/14 00:48:06;;;;;;;4.15;1.75;;;22.70;99.90;;;;;;4977414;28;20031;-86
2023/08/14 00:50:32;;;;;;;3.75;2.25;;;22.70;99.90;;;;;;4976563;28;20023;-89
2023/08/14 00:53:00;;;;;;;3.67;1.75;;;22.70;99.90;;;;;;4979163;28;20034;-89
2023/08/14 00:55:26;;;;;;;5.85;1.52;;;22.70;99.90;;;;;;4977341;28;20030;-88
2023/08/14 00:57:56;;;;;;;4.00;1.75;;;22.70;99.90;;;;;;4977872;28;20046;-88
2023/08/14 01:00:22;;;;;;;2.25;1.58;;;22.70;99.90;;;;;;4978168;28;20134;-88
2023/08/14 01:02:49;;;;;;;2.05;1.63;;;22.70;99.90;;;;;;4977058;28;20483;-89
2023/08/14 01:05:15;;;;;;;2.40;1.60;;;22.70;99.90;;;;;;4977640;28;20027;-83
2023/08/14 01:07:40;;;;;;;3.78;1.65;;;22.70;99.90;;;;;;4979579;28;20034;-87
2023/08/14 01:10:08;;;;;;;3.42;1.58;;;22.70;99.90;;;;;;4979257;28;20367;-88
2023/08/14 01:12:54;;;;;;;2.20;1.65;;;22.60;99.90;;;;;;4980296;28;20033;-88
2023/08/14 01:15:31;;;;;;;7.35;1.88;;;22.60;99.90;;;;;;4982170;28;20043;-88
2023/08/14 01:18:02;;;;;;;2.90;1.58;;;22.60;99.90;;;;;;4983458;28;20031;-88
2023/08/14 01:20:30;;;;;;;;;;;22.50;99.90;;;;;;4982704;28;20034;-89
2023/08/14 01:23:20;;;;;;;2.95;1.60;;;22.40;99.90;;;;;;4982685;28;19906;-88
2023/08/14 01:25:47;;;;;;;3.38;1.50;;;22.40;99.90;;;;;;4982816;28;20050;-87
2023/08/14 01:28:13;;;;;;;3.10;1.75;;;22.40;99.90;;;;;;4982973;28;20042;-84
2023/08/14 01:30:39;;;;;;;2.28;1.88;;;22.50;99.90;;;;;;4982585;28;20031;-87
2023/08/14 01:33:05;;;;;;;2.72;1.60;;;22.40;99.90;;;;;;4982045;28;20388;-88
2023/08/14 01:35:51;;;;;;;1.92;1.65;;;22.40;99.90;;;;;;4981445;28;20027;-88
2023/08/14 01:38:28;;;;;;;2.33;1.55;;;22.40;99.90;;;;;;4981519;28;20118;-82
2023/08/14 01:41:13;;;;;;;3.20;1.90;;;22.30;99.90;;;;;;4981571;28;20082;-88
2023/08/14 01:43:49;;;;;;;2.78;1.70;;;22.30;99.90;;;;;;4980666;28;20058;-88
2023/08/14 01:46:17;;;;;;;2.33;1.60;;;22.30;99.90;;;;;;4980842;28;20105;-83
2023/08/14 01:48:45;;;;;;;2.83;1.50;;;22.30;99.90;;;;;;4981296;28;20027;-87
2023/08/14 01:51:11;;;;;;;2.88;1.58;;;22.30;99.90;;;;;;4981598;28;20081;-87
2023/08/14 01:53:37;;;;;;;3.30;1.60;;;22.30;99.90;;;;;;4981019;28;20038;-88
2023/08/14 01:56:02;;;;;;;2.72;1.75;;;22.30;99.90;;;;;;4982305;28;20030;-87
2023/08/14 01:58:29;;;;;;;3.08;1.67;;;22.30;99.90;;;;;;4981209;28;20061;-87
2023/08/14 02:00:54;;;;;;;3.28;1.90;;;22.30;99.90;;;;;;4982099;28;20035;-88
2023/08/14 02:03:20;;;;;;;2.53;1.67;;;22.30;99.90;;;;;;4980896;28;20485;-86
2023/08/14 02:05:46;;;;;;;4.15;1.83;;;22.30;99.90;;;;;;4980955;28;20030;-88
2023/08/14 02:08:11;;;;;;;3.38;2.08;;;22.30;99.90;;;;;;4981062;28;20035;-87
2023/08/14 02:10:37;;;;;;;6.45;5.20;;;22.30;99.90;;;;;;4980827;28;20053;-87
2023/08/14 02:13:02;;;;;;;5.25;2.83;;;22.30;99.90;;;;;;4981271;28;20526;-87
2023/08/14 02:15:28;;;;;;;5.47;2.00;;;22.30;99.90;;;;;;4979350;28;20026;-88
2023/08/14 02:17:54;;;;;;;3.05;1.73;;;22.20;99.90;;;;;;4980683;28;20468;-87
2023/08/14 02:20:19;;;;;;;3.90;1.70;;;22.20;99.90;;;;;;4979316;28;20057;-83
2023/08/14 02:22:46;;;;;;;3.00;1.63;;;22.20;99.90;;;;;;4986035;28;20411;-86
2023/08/14 02:25:11;;;;;;;2.63;1.80;;;22.10;99.90;;;;;;4997645;28;20503;-87
2023/08/14 02:27:37;;;;;;;3.30;1.60;;;22.10;99.90;;;;;;4982439;28;20030;-87
2023/08/14 02:30:03;;;;;;;2.78;1.80;;;22.10;99.90;;;;;;5000008;28;20388;-87
2023/08/14 02:32:28;;;;;;;2.95;1.70;;;22.00;99.90;;;;;;4998580;28;20049;-86
2023/08/14 02:34:55;;;;;;;4.40;1.92;;;22.00;99.90;;;;;;4983344;28;20524;-87
2023/08/14 02:37:22;;;;;;;3.47;1.67;;;22.00;99.90;;;;;;4989421;28;20023;-86
2023/08/14 02:39:48;;;;;;;3.08;1.60;;;22.00;99.90;;;;;;4998592;28;20074;-88
2023/08/14 02:42:18;;;;;;;5.18;1.98;;;22.00;99.90;;;;;;4997187;28;20026;-87
2023/08/14 02:44:44;;;;;;;3.97;2.10;;;21.90;99.90;;;;;;4981366;28;20057;-88
2023/08/14 02:47:09;;;;;;;3.95;2.00;;;22.00;99.90;;;;;;4979351;28;20030;-88
2023/08/14 02:49:35;;;;;;;4.57;2.05;;;22.00;99.90;;;;;;4995389;28;20510;-87
2023/08/14 02:52:01;;;;;;;5.57;2.13;;;22.00;99.90;;;;;;4970808;28;20424;-88
2023/08/14 02:54:26;;;;;;;3.85;2.20;;;22.00;99.90;;;;;;4959644;28;20098;-87
2023/08/14 02:56:52;;;;;;;3.03;2.00;;;21.90;99.90;;;;;;4966109;28;20018;-88
2023/08/14 02:59:18;;;;;;;4.72;2.00;;;21.90;99.90;;;;;;4996108;28;20042;-83
2023/08/14 03:01:44;;;;;;;4.38;2.10;;;21.90;99.90;;;;;;4996373;28;20023;-87
2023/08/14 03:04:10;;;;;;;4.07;2.03;;;21.80;99.90;;;;;;4996139;28;20037;-87
2023/08/14 03:06:35;;;;;;;3.75;2.30;;;21.90;99.90;;;;;;4982028;28;20027;-89
2023/08/14 03:09:01;;;;;;;3.92;2.03;;;21.80;99.90;;;;;;4977066;28;20058;-87
2023/08/14 03:11:27;;;;;;;5.50;1.90;;;21.80;99.90;;;;;;4974785;28;20035;-87
2023/08/14 03:13:53;;;;;;;5.03;1.90;;;21.70;99.90;;;;;;4959629;28;20073;-87
2023/08/14 03:16:19;;;;;;;4.90;2.20;;;21.70;99.90;;;;;;4959328;28;20061;-84
2023/08/14 03:18:44;;;;;;;5.10;2.20;;;21.70;99.90;;;;;;4973336;28;20461;-86
2023/08/14 03:21:10;;;;;;;5.05;2.60;;;21.70;99.90;;;;;;4995150;28;20375;-86
2023/08/14 03:23:36;;;;;;;3.45;2.15;;;21.70;99.90;;;;;;4994985;28;20034;-86
2023/08/14 03:26:02;;;;;;;2.85;2.00;;;21.70;99.90;;;;;;4996446;28;20538;-86
2023/08/14 03:28:28;;;;;;;5.68;1.90;;;21.60;99.90;;;;;;4996352;28;20038;-86
2023/08/14 03:30:54;;;;;;;5.18;1.90;;;21.70;99.90;;;;;;4996018;28;20077;-86
2023/08/14 03:33:19;;;;;;;5.65;2.40;;;21.70;99.90;;;;;;4994959;28;20023;-84
2023/08/14 03:35:45;;;;;;;4.80;2.00;;;21.60;99.90;;;;;;4994861;28;20058;-86
2023/08/14 03:38:11;;;;;;;3.47;1.55;;;21.60;99.90;;;;;;4995850;28;20030;-86
2023/08/14 03:40:37;;;;;;;5.53;1.75;;;21.50;99.90;;;;;;4978082;28;20102;-86
2023/08/14 03:43:02;;;;;;;5.70;2.50;;;21.50;99.90;;;;;;4995870;28;20031;-86
2023/08/14 03:45:28;;;;;;;5.78;1.83;;;21.40;99.90;;;;;;4978135;28;20054;-86
2023/08/14 03:47:54;;;;;;;4.75;1.90;;;21.40;99.90;;;;;;4978729;28;20034;-86
2023/08/14 03:50:19;;;;;;;2.75;1.73;;;21.30;99.90;;;;;;4978297;28;20099;-85
2023/08/14 03:52:45;;;;;;;2.90;1.90;;;21.30;99.90;;;;;;4994294;28;20023;-86
2023/08/14 03:55:11;;;;;;;4.60;1.60;;;21.30;99.90;;;;;;4978439;28;20026;-86
2023/08/14 03:57:36;;;;;;;1.98;1.35;;;21.30;99.90;;;;;;4977714;28;20137;-86
2023/08/14 04:00:02;;;;;;;4.88;1.88;;;21.30;99.90;;;;;;4995191;28;20033;-86
2023/08/14 04:02:28;;;;;;;5.68;1.63;;;21.30;99.90;;;;;;4977650;28;20038;-85
2023/08/14 04:04:54;;;;;;;6.20;2.03;;;21.20;99.90;;;;;;4994170;28;20081;-86
2023/08/14 04:07:19;;;;;;;5.88;1.75;;;21.20;99.90;;;;;;4978204;28;20093;-86
2023/08/14 04:09:45;;;;;;;2.42;1.88;;;21.20;99.90;;;;;;4994568;28;20117;-86
2023/08/14 04:12:11;;;;;;;3.28;1.70;;;21.20;99.90;;;;;;4977859;28;20026;-86
2023/08/14 04:14:36;;;;;;;1.73;1.60;;;21.10;99.90;;;;;;4977557;28;20026;-86
2023/08/14 04:17:02;;;;;;;7.65;1.80;;;21.10;99.90;;;;;;4995225;28;20513;-86
2023/08/14 04:19:28;;;;;;;10.27;2.10;;;21.10;99.90;;;;;;4993817;28;20038;-86
2023/08/14 04:21:53;;;;;;;3.70;1.60;;;21.00;99.90;;;;;;4994585;28;20053;-86
2023/08/14 04:24:19;;;;;;;5.57;2.10;;;21.10;99.90;;;;;;4978060;28;20022;-87
2023/08/14 04:26:45;;;;;;;3.75;2.10;;;21.10;99.90;;;;;;4977713;28;20064;-86
2023/08/14 04:29:10;;;;;;;3.72;2.00;;;21.10;99.90;;;;;;4995177;28;20446;-86
2023/08/14 04:31:37;;;;;;;2.92;1.60;;;21.00;99.90;;;;;;4977720;28;20031;-85
2023/08/14 04:34:03;;;;;;;3.35;1.80;;;21.00;99.90;;;;;;4994178;28;20491;-86
2023/08/14 04:36:32;;;;;;;3.13;1.98;;;21.00;99.90;;;;;;4993330;28;20173;-86
2023/08/14 04:38:57;;;;;;;6.43;2.10;;;21.00;99.90;;;;;;4977052;28;20132;-86
2023/08/14 04:41:24;;;;;;;6.85;2.13;;;21.00;99.90;;;;;;4977076;28;20054;-82
2023/08/14 04:43:50;;;;;;;3.75;1.75;;;21.00;99.90;;;;;;4994617;28;20031;-86
2023/08/14 04:46:29;;;;;;;2.88;1.90;;;21.00;99.90;;;;;;4993633;28;20126;-86
2023/08/14 04:48:55;;;;;;;6.18;1.70;;;21.00;99.90;;;;;;4977666;28;20045;-86
2023/08/14 04:51:21;;;;;;;3.67;2.20;;;21.00;99.90;;;;;;4994743;28;20030;-86
2023/08/14 04:53:46;;;;;;;5.00;2.13;;;21.00;99.90;;;;;;4977244;28;20030;-86
2023/08/14 04:56:12;;;;;;;5.18;2.05;;;21.00;99.90;;;;;;4993997;28;20465;-86
2023/08/14 04:58:37;;;;;;;4.13;2.03;;;21.10;99.90;;;;;;4993773;28;20042;-85
2023/08/14 05:01:03;;;;;;;3.05;2.08;;;21.10;99.90;;;;;;4994551;28;20037;-86
2023/08/14 05:03:28;;;;;;;3.58;1.90;;;21.10;99.90;;;;;;4977258;28;20060;-86
2023/08/14 05:05:54;;;;;;;4.88;2.50;;;21.10;99.90;;;;;;4994617;28;20033;-86
2023/08/14 05:08:20;;;;;;;5.25;2.17;;;21.10;99.90;;;;;;4977202;28;20109;-86
2023/08/14 05:10:52;;;;;;;3.90;2.00;;;21.20;99.90;;;;;;4976794;28;20157;-86
2023/08/14 05:13:18;;;;;;;8.45;2.42;;;21.20;99.90;;;;;;4977176;28;20034;-86
2023/08/14 05:15:46;;;;;;;4.13;2.10;;;21.20;99.90;;;;;;4993940;28;20034;-86
2023/08/14 05:18:12;;;;;;;3.50;1.77;;;21.30;99.90;;;;;;4994309;28;20474;-86
2023/08/14 05:20:38;;;;;;;4.25;2.10;;;21.40;99.90;;;;;;4992816;28;20034;-86
2023/08/14 05:23:04;;;;;;;2.13;1.92;;;21.40;99.90;;;;;;4994695;28;20065;-86
2023/08/14 05:25:29;;;;;;;4.93;2.42;;;21.50;99.90;;;;;;4993094;28;20106;-86
2023/08/14 05:27:55;;;;;;;2.22;1.77;;;21.50;99.90;;;;;;4994564;28;20046;-86
2023/08/14 05:30:21;;;;;;;5.60;1.90;;;21.50;99.90;;;;;;4994166;28;20026;-87
2023/08/14 05:32:47;;;;;;;3.28;2.25;;;21.50;99.90;;;;;;4976839;28;20579;-86
2023/08/14 05:35:13;;;;;;;6.90;2.03;;;21.60;99.90;;;;;;4994334;28;20042;-86
2023/08/14 05:37:42;;;;;;;4.47;2.08;;;21.50;99.90;;;;;;4976583;28;20023;-86
2023/08/14 05:40:10;;;;;;;4.63;2.40;;;21.50;99.90;;;;;;4994105;28;20073;-85
2023/08/14 05:42:36;;;;;;;6.07;2.47;;;21.50;99.90;;;;;;4976984;28;20117;-86
2023/08/14 05:45:02;;;;;;;4.57;2.42;;;21.50;99.90;;;;;;4994094;28;20046;-86
2023/08/14 05:47:28;;;;;;;7.05;2.08;;;21.50;99.90;;;;;;4976951;28;20072;-82
2023/08/14 05:49:54;;;;;;;3.05;2.30;;;21.50;99.90;;;;;;4994029;28;20094;-86
2023/08/14 05:52:19;;;;;;;2.60;2.00;;;21.50;99.90;;;;;;4976904;28;20048;-86
2023/08/14 05:54:45;;;;;;;5.50;2.58;;;21.60;99.90;;;;;;4975947;28;20027;-86
2023/08/14 05:57:11;;;;;;;3.33;2.00;;;21.60;99.90;;;;;;4993952;28;20523;-86
2023/08/14 05:59:36;;;;;;;5.13;2.10;;;21.70;99.90;;;;;;4979366;28;20042;-86
2023/08/14 06:02:02;;;;;;;5.43;2.40;;;21.80;99.90;;;;;;4980509;28;20468;-86
2023/08/14 06:04:27;;;;;;;7.35;2.72;;;21.80;99.90;;;;;;4997381;28;20026;-83
2023/08/14 06:06:53;;;;;;;5.28;2.78;;;21.80;99.90;;;;;;4996110;28;20419;-86
2023/08/14 06:09:19;;;;;;;5.38;2.50;;;21.90;99.90;;;;;;4997711;28;20037;-86
2023/08/14 06:11:45;;;;;;;4.57;2.40;;;21.90;99.90;;;;;;4996100;28;20033;-86
2023/08/14 06:14:11;;;;;;;5.03;2.60;;;21.90;99.90;;;;;;4997203;28;20383;-86
2023/08/14 06:16:36;;;;;;;6.07;2.90;;;22.00;99.90;;;;;;4995876;28;20485;-86
2023/08/14 06:19:02;;;;;;;5.68;2.47;;;22.10;99.90;;;;;;4996165;28;20547;-86
2023/08/14 06:21:28;;;;;;;3.33;2.40;;;22.10;99.90;;;;;;4980124;28;20057;-83
2023/08/14 06:23:53;;;;;;;5.97;2.35;;;22.20;99.90;;;;;;4979650;28;20030;-86
2023/08/14 06:26:19;;;;;;;5.05;2.40;;;22.20;99.90;;;;;;4980145;28;20121;-87
2023/08/14 06:28:45;;;;;;;4.65;2.50;;;22.20;99.90;;;;;;4979454;28;20380;-86
2023/08/14 06:31:10;;;;;;;7.65;2.47;;;22.20;99.90;;;;;;4996774;28;20034;-86
2023/08/14 06:33:36;;;;;;;4.78;2.10;;;22.20;99.90;;;;;;4996279;28;20490;-86
2023/08/14 06:36:01;;;;;;;6.38;2.50;;;22.20;99.90;;;;;;4979773;28;20058;-87
2023/08/14 06:38:27;;;;;;;6.20;2.95;;;22.20;99.90;;;;;;4979590;28;20472;-87
2023/08/14 06:40:53;;;;;;;7.70;2.72;;;22.20;99.90;;;;;;4979239;28;20038;-86
2023/08/14 06:43:19;;;;;;;3.83;2.47;;;22.30;99.90;;;;;;4997369;28;20484;-85
2023/08/14 06:45:46;;;;;;;6.10;2.38;;;22.20;99.90;;;;;;4978923;28;20053;-86
2023/08/14 06:48:13;;;;;;;6.55;2.28;;;22.20;99.90;;;;;;4979639;28;20041;-86
2023/08/14 06:50:38;;;;;;;4.03;2.40;;;22.30;99.90;;;;;;4996167;28;20034;-86
2023/08/14 06:53:04;;;;;;;4.00;2.63;;;22.30;99.90;;;;;;4979562;28;20041;-86
2023/08/14 06:55:29;;;;;;;4.82;2.40;;;22.30;99.90;;;;;;4996418;28;20375;-85
2023/08/14 06:57:55;;;;;;;5.72;2.38;;;22.30;99.90;;;;;;4994712;28;20133;-86
2023/08/14 07:00:21;;;;;;;6.68;2.20;;;22.30;99.90;;;;;;4995456;28;20062;-86
2023/08/14 07:02:47;;;;;;;4.97;2.90;;;22.30;99.90;;;;;;4995039;28;20040;-86
2023/08/14 07:05:13;;;;;;;2.70;1.98;;;22.40;99.90;;;;;;4996339;28;20105;-86
2023/08/14 07:07:39;;;;;;;2.58;2.08;;;22.40;99.90;;;;;;4995098;28;20027;-87
2023/08/14 07:10:06;;;;;;;4.65;2.60;;;22.40;99.90;;;;;;4995308;28;20153;-86
2023/08/14 07:12:31;;;;;;;3.88;2.13;;;22.50;99.90;;;;;;4978171;28;20033;-86
2023/08/14 07:14:58;;;;;;;4.03;2.30;;;22.50;99.90;;;;;;4996224;28;20030;-88
2023/08/14 07:17:23;;;;;;;4.63;2.53;;;22.50;99.90;;;;;;4977992;28;20026;-87
2023/08/14 07:19:49;;;;;;;5.78;2.72;;;22.60;99.90;;;;;;4995551;28;20026;-88
2023/08/14 07:22:14;;;;;;;5.43;2.38;;;22.60;99.90;;;;;;4996416;28;20035;-88
2023/08/14 07:24:40;;;;;;;6.40;2.78;;;22.60;99.90;;;;;;4995853;28;20383;-88
2023/08/14 07:27:05;;;;;;;5.70;2.60;;;22.60;99.90;;;;;;4978593;28;20084;-89
2023/08/14 07:29:31;;;;;;;3.83;2.33;;;22.60;99.90;;;;;;4978762;28;20034;-88
2023/08/14 07:31:57;;;;;;;6.65;2.53;;;22.70;99.90;;;;;;4995579;28;20082;-88
2023/08/14 07:34:22;;;;;;;5.75;2.40;;;22.70;99.90;;;;;;4995626;28;20030;-90
2023/08/14 07:36:48;;;;;;;3.97;2.30;;;22.80;99.90;;;;;;4995395;28;20030;-88
2023/08/14 07:39:14;;;;;;;6.45;2.60;;;22.80;99.90;;;;;;4995645;28;20037;-88
2023/08/14 07:41:39;;;;;;;7.65;2.65;;;22.90;99.90;;;;;;4978477;28;20368;-88
2023/08/14 07:44:05;;;;;;;4.53;2.58;;;23.00;99.90;;;;;;4978785;28;20023;-88
2023/08/14 07:46:31;;;;;;;5.13;2.78;;;23.00;99.90;;;;;;4995626;28;20051;-89
2023/08/14 07:48:56;;;;;;;8.38;2.70;;;23.10;99.90;;;;;;4978115;28;20140;-88
2023/08/14 07:51:22;;;;;;;4.50;2.63;;;23.10;99.90;;;;;;4978597;28;20482;-87
2023/08/14 07:53:47;;;;;;;4.93;2.50;;;23.10;99.90;;;;;;4977847;28;20026;-88
2023/08/14 07:56:13;;;;;;;3.42;2.45;;;23.10;99.90;;;;;;4994563;28;20033;-88
2023/08/14 07:58:41;;;;;;;4.57;2.53;;;23.10;99.90;;;;;;4977038;28;20037;-89
2023/08/14 08:01:07;;;;;;;2.53;2.08;;;23.10;99.90;;;;;;4978145;28;20049;-88
2023/08/14 08:03:33;;;;;;;6.57;2.85;;;23.10;99.90;;;;;;4978323;28;20023;-88
2023/08/14 08:05:58;;;;;;;4.72;2.50;;;23.10;99.90;;;;;;4977549;28;20034;-88
2023/08/14 08:08:24;;;;;;;4.18;2.40;;;23.20;99.90;;;;;;4994163;28;20057;-88
2023/08/14 08:10:50;;;;;;;9.32;2.53;;;23.20;99.90;;;;;;4993570;28;20117;-88
2023/08/14 08:13:15;;;;;;;5.10;2.45;;;23.20;99.90;;;;;;4977835;28;20384;-89
2023/08/14 08:15:41;;;;;;;4.53;2.38;;;23.30;99.90;;;;;;4994359;28;20101;-87
2023/08/14 08:18:06;;;;;;;4.82;2.53;;;23.30;99.90;;;;;;4977863;28;20034;-89
2023/08/14 08:20:32;;;;;;;3.72;2.58;;;23.30;99.90;;;;;;4977544;28;20034;-87
2023/08/14 08:22:58;;;;;;;3.30;2.30;;;23.40;99.90;;;;;;4994759;28;20110;-88
2023/08/14 08:25:23;;;;;;;3.15;2.10;;;23.40;99.90;;;;;;4997758;28;20092;-87
2023/08/14 08:27:49;;;;;;;5.35;2.63;;;23.40;99.90;;;;;;4998261;28;20456;-87
2023/08/14 08:30:15;;;;;;;5.60;2.85;;;23.50;99.90;;;;;;4999435;28;20073;-87
2023/08/14 08:32:40;;;;;;;7.45;2.63;;;23.60;99.90;;;;;;4981357;28;20033;-86
2023/08/14 08:35:06;;;;;;;3.22;2.13;;;23.60;99.90;;;;;;4998876;28;20082;-87
2023/08/14 08:37:32;;;;;;;6.07;2.20;;;23.60;99.90;;;;;;5001516;28;20472;-88
2023/08/14 08:39:57;;;;;;;3.45;2.55;;;23.60;99.90;;;;;;5002755;28;20070;-87
2023/08/14 08:42:24;;;;;;;3.50;2.65;;;23.70;99.90;;;;;;5001611;28;20030;-87
2023/08/14 08:44:52;;;;;;;4.15;2.38;;;23.60;99.90;;;;;;4999702;28;20053;-87
2023/08/14 08:47:23;;;;;;;4.32;2.22;;;23.70;99.90;;;;;;4982758;28;20037;-88
2023/08/14 08:49:49;;;;;;;3.47;2.70;;;23.70;99.90;;;;;;4984596;28;20037;-87
2023/08/14 08:52:15;;;;;;;5.50;2.45;;;23.80;99.90;;;;;;5001214;28;20026;-86
2023/08/14 08:54:40;;;;;;;2.85;2.42;;;23.90;99.90;;;;;;4983818;28;20482;-83
2023/08/14 08:57:06;;;;;;;4.18;2.20;;;23.90;99.90;;;;;;4995082;28;20030;-87
2023/08/14 08:59:33;;;;;;;2.78;2.25;;;24.00;99.90;;;;;;4994965;28;20069;-88
2023/08/14 09:01:58;;;;;;;2.90;2.28;;;24.00;99.90;;;;;;4994589;28;20228;-87
2023/08/14 09:04:24;;;;;;;5.28;2.45;;;24.10;99.90;;;;;;4994603;28;20540;-86
2023/08/14 09:06:50;;;;;;;2.38;2.05;;;24.10;99.90;;;;;;4994055;28;20026;-88
2023/08/14 09:09:16;;;;;;;4.05;2.10;;;24.20;99.90;;;;;;4977520;28;20029;-86
2023/08/14 09:11:42;;;;;;;3.65;2.17;;;24.20;99.90;;;;;;4976756;28;20026;-87
2023/08/14 09:14:08;;;;;;;3.55;2.22;;;24.30;99.90;;;;;;4994590;28;20041;-89
2023/08/14 09:16:33;;;;;;;3.38;2.28;;;24.40;99.90;;;;;;4977477;28;20415;-89
2023/08/14 09:19:00;;;;;;;3.28;2.35;;;24.50;99.90;;;;;;4976893;28;20108;-89
2023/08/14 09:21:27;;;;;;;3.15;2.20;;;24.80;99.90;;;;;;4964681;28;20030;-90
2023/08/14 09:23:53;;;;;;;5.70;2.03;;;24.90;99.90;;;;;;4990230;28;20033;-89
2023/08/14 09:26:19;;;;;;;4.88;2.22;;;25.00;99.90;;;;;;4985490;28;20090;-88
2023/08/14 09:28:46;;;;;;;2.55;1.98;;;25.20;99.90;;;;;;4980930;28;20162;-88
2023/08/14 09:31:12;;;;;;;3.20;2.50;;;25.20;99.90;;;;;;4988229;28;20042;-88
2023/08/14 09:33:44;;;;;;;2.70;2.20;;;25.40;99.90;;;;;;4961538;28;20027;-86
2023/08/14 09:36:11;;;;;;;;;;;25.50;99.90;;;;;;4974699;28;20050;-88
2023/08/14 09:38:37;;;;;;;4.28;2.08;;;25.50;99.90;;;;;;4986021;28;19909;-90
2023/08/14 09:41:02;;;;;;;3.55;2.22;;;25.60;99.90;;;;;;4960314;28;20081;-88
2023/08/14 09:43:30;;;;;;;3.75;2.80;;;25.60;99.90;;;;;;4977134;28;20081;-90
2023/08/14 09:45:58;;;;;;;3.55;2.17;;;25.50;99.90;;;;;;4981406;28;20050;-89
2023/08/14 09:48:45;;;;;;;3.38;2.17;;;25.50;99.90;;;;;;4980630;28;20034;-88
2023/08/14 09:51:16;;;;;;;4.07;2.13;;;25.50;99.90;;;;;;4995912;28;20464;-89
2023/08/14 09:53:49;;;;;;;4.07;2.50;;;25.60;99.90;;;;;;4963450;28;20035;-90
2023/08/14 09:56:19;;;;;;;2.92;2.13;;;25.70;99.90;;;;;;4972848;28;20054;-90
2023/08/14 09:58:47;;;;;;;7.90;2.40;;;25.70;99.90;;;;;;4970594;28;20189;-88
2023/08/14 10:01:14;;;;;;;5.15;2.15;;;25.80;99.90;;;;;;4965099;28;20043;-90
2023/08/14 10:03:41;;;;;;;2.90;1.80;;;25.80;99.90;;;;;;4976042;28;20037;-87
2023/08/14 10:06:11;;;;;;;4.07;2.00;;;25.90;99.90;;;;;;4970564;28;20030;-88
2023/08/14 10:08:37;;;;;;;2.30;1.73;;;26.00;99.90;;;;;;4996278;28;20130;-89
2023/08/14 10:11:04;;;;;;;2.17;1.92;;;26.10;99.90;;;;;;4986212;28;20066;-92
2023/08/14 10:13:32;;;;;;;3.17;1.55;;;26.20;99.90;;;;;;4977058;28;20037;-90
2023/08/14 10:16:00;;;;;;;3.20;1.92;;;26.30;99.90;;;;;;4978773;28;20225;-89
2023/08/14 10:18:28;;;;;;;3.22;1.95;;;26.30;99.90;;;;;;4984373;28;20034;-87
2023/08/14 10:20:57;;;;;;;1.95;1.55;;;26.40;99.90;;;;;;4976379;28;20395;-86
2023/08/14 10:23:23;;;;;;;1.88;1.60;;;26.30;99.90;;;;;;4977778;28;20031;-88
2023/08/14 10:25:50;;;;;;;3.35;1.67;;;26.40;99.90;;;;;;4978812;28;20045;-87
2023/08/14 10:28:18;;;;;;;3.08;1.85;;;26.40;99.90;;;;;;4979719;28;20064;-92
2023/08/14 10:30:45;;;;;;;3.35;2.13;;;26.40;99.90;;;;;;4973286;28;20038;-92
2023/08/14 10:33:12;;;;;;;3.67;1.70;;;26.30;99.90;;;;;;4960667;28;20045;-92
2023/08/14 10:36:04;;;;;;;2.88;1.50;;;26.30;99.90;;;;;;4991365;28;20027;-90
2023/08/14 10:38:42;;;;;;;2.03;1.48;;;26.40;99.90;;;;;;4984300;28;20129;-91
2023/08/14 10:41:09;;;;;;;3.17;1.77;;;26.40;99.90;;;;;;4987516;28;20469;-88
2023/08/14 10:43:34;;;;;;;4.70;1.80;;;26.50;99.90;;;;;;4978172;28;20026;-87
2023/08/14 10:46:07;;;;;;;2.58;1.70;;;26.50;99.90;;;;;;4990841;28;20594;-89
2023/08/14 10:48:41;;;;;;;2.58;1.95;;;26.50;99.90;;;;;;4986719;28;20109;-88
2023/08/14 10:51:08;;;;;;;3.08;1.77;;;26.60;99.90;;;;;;4976451;28;20045;-88
2023/08/14 10:53:34;;;;;;;3.85;1.52;;;26.60;99.90;;;;;;4963784;28;20027;-88
2023/08/14 10:56:00;;;;;;;2.90;1.70;;;26.70;99.90;;;;;;4964599;28;20034;-92
2023/08/14 10:58:29;;;;;;;2.22;1.90;;;26.80;99.90;;;;;;4987653;28;20081;-87
2023/08/14 11:00:55;;;;;;;2.30;1.67;;;26.90;99.90;;;;;;4970671;28;20042;-86
2023/08/14 11:03:21;;;;;;;4.90;1.80;;;27.00;99.90;;;;;;4979313;28;20030;-87
2023/08/14 11:05:47;;;;;;;2.90;1.98;;;27.00;99.90;;;;;;4991997;28;20402;-86
2023/08/14 11:08:14;;;;;;;3.45;1.90;;;27.00;99.90;;;;;;4972609;28;20035;-87
2023/08/14 11:10:41;;;;;;;3.60;1.70;;;27.00;99.90;;;;;;4969488;28;20410;-86
2023/08/14 11:13:08;;;;;;;4.68;1.83;;;27.00;99.90;;;;;;4982316;28;20027;-87
2023/08/14 11:15:35;;;;;;;3.20;1.90;;;27.00;99.90;;;;;;4960303;28;20495;-85
2023/08/14 11:18:02;;;;;;;5.03;1.80;;;27.00;99.90;;;;;;4960190;28;20026;-86
2023/08/14 11:20:29;;;;;;;3.30;1.77;;;27.00;99.90;;;;;;4985735;28;20033;-87
2023/08/14 11:22:55;;;;;;;3.38;1.90;;;27.00;99.90;;;;;;4995443;28;20038;-86
2023/08/14 11:25:22;;;;;;;3.08;1.80;;;27.10;99.90;;;;;;4995163;28;20023;-86
2023/08/14 11:27:55;;;;;;;3.30;1.70;;;27.10;99.90;;;;;;4978812;28;20113;-87
2023/08/14 11:30:23;;;;;;;4.90;1.77;;;27.20;99.90;;;;;;4987806;28;20038;-87
2023/08/14 11:32:50;;;;;;;3.08;1.70;;;27.30;99.90;;;;;;4975869;28;20031;-86
2023/08/14 11:35:16;;;;;;;3.70;1.77;;;27.30;99.90;;;;;;4991269;28;20030;-88
2023/08/14 11:37:42;;;;;;;3.25;1.60;;;27.40;99.90;;;;;;4978411;28;20026;-84
2023/08/14 11:40:10;;;;;;;2.55;1.70;;;27.50;99.90;;;;;;4965148;28;20181;-86
2023/08/14 11:42:38;;;;;;;3.92;1.92;;;27.60;99.90;;;;;;4985203;28;20081;-87
2023/08/14 11:45:05;;;;;;;4.10;1.88;;;27.60;99.90;;;;;;4989174;28;20121;-86
2023/08/14 11:47:34;;;;;;;2.00;1.50;;;27.80;99.90;;;;;;4979263;28;20035;-88
2023/08/14 11:50:02;;;;;;;4.05;2.08;;;27.80;99.90;;;;;;4976599;28;20230;-88
2023/08/14 11:52:28;;;;;;;2.20;1.88;;;27.80;99.90;;;;;;4996535;28;20125;-86
2023/08/14 11:54:55;;;;;;;1.70;1.60;;;27.80;99.90;;;;;;4978069;28;20033;-87
2023/08/14 11:57:31;;;;;;;3.17;1.75;;;27.80;99.90;;;;;;4979499;28;20033;-89
2023/08/14 11:59:59;;;;;;;3.55;1.98;;;27.80;99.90;;;;;;4978685;28;20034;-87
2023/08/14 12:02:27;;;;;;;2.80;1.60;;;27.80;99.90;;;;;;4979934;28;20042;-88
2023/08/14 12:04:57;;;;;;;3.33;1.70;;;27.80;99.90;;;;;;4985488;28;20026;-89
2023/08/14 12:07:25;;;;;;;6.07;1.98;;;27.90;99.90;;;;;;4980822;28;20022;-88
2023/08/14 12:09:54;;;;;;;3.20;1.60;;;28.00;99.90;;;;;;4977362;28;20034;-87
2023/08/14 12:12:19;;;;;;;3.92;1.98;;;28.20;99.90;;;;;;4995042;28;20034;-88
2023/08/14 12:14:48;;;;;;;5.38;1.98;;;28.40;99.90;;;;;;4982882;28;20456;-83
2023/08/14 12:17:16;;;;;;;3.40;1.80;;;28.50;99.90;;;;;;4989728;28;20037;-87
2023/08/14 12:19:47;;;;;;;3.08;1.73;;;28.70;99.90;;;;;;4981778;28;20027;-85
2023/08/14 12:22:12;;;;;;;;;;;28.60;99.90;;;;;;4986447;28;20038;-86
2023/08/14 12:24:40;;;;;;;4.07;1.90;;;28.70;99.90;;;;;;4993060;28;19914;-83
2023/08/14 12:27:16;;;;;;;4.35;1.90;;;28.80;99.90;;;;;;4993870;28;20030;-83
2023/08/14 12:29:43;;;;;;;3.60;1.92;;;28.80;99.90;;;;;;4994765;28;20045;-85
2023/08/14 12:32:08;;;;;;;2.47;2.15;;;28.90;99.90;;;;;;4983844;28;20026;-85
2023/08/14 12:34:34;;;;;;;2.95;1.70;;;29.00;99.90;;;;;;4967333;28;20029;-85
2023/08/14 12:36:59;;;;;;;3.20;2.08;;;29.00;99.90;;;;;;4994516;28;20030;-85
2023/08/14 12:39:25;;;;;;;10.45;4.50;;;29.00;99.90;;;;;;4961253;28;20037;-86
2023/08/14 12:41:55;;;;;;;6.55;2.63;;;29.10;99.90;;;;;;4976334;28;20026;-86
2023/08/14 12:44:20;;;;;;;4.82;2.60;;;29.30;99.90;;;;;;4977056;28;20033;-86
2023/08/14 12:46:46;;;;;;;2.50;2.25;;;29.40;99.90;;;;;;4994508;28;20022;-81